メインページ
METAR-TAF:

METAR-TAF

空港 :

ベイルート, レバノン

緯度: 33-49N, 経度: 035-29E, 海抜: 29m

現時点の気象観測

当レポートは59分前の11:00(UTC)に作成
北西の風 9kt
気温 19°C
湿度 60%
気圧 1017 hPa
視程: 8000m
高度2600ftの雲はほとんどない

METAR: OLBA 241100Z 32009KT 8000 FEW026 19/11 Q1017

時間: 13:59 (11:59 UTC)

予報

当レポートは1時間59分前の10:00(UTC)に作成
予報は24日の 12時(UTC)から 25日の 18時(UTC)まで有効
の風 4kt、西から北/北西の間で変化する
視程: 8000m
高度2600ftの雲はほとんどない
25日の 06時(UTC)から 25日の 08時(UTC)まで徐々に
西の風 12kt、西/南西から北西の間で変化する

TAF: OLBA 241000Z 2412/2518 32015KT 270V340 8000 FEW026 2418/2420 10004KT BECMG 2506/2508 26012KT 240V320

4,000以上の空港の気象観測と天気予報(METAR報とTAF報)

利用可能な観測所は地図上に黄色い丸と赤い丸で示す。

丸の上にカーソルを重ねると観測所名を参照できる。

次にクリックすると気象観測と天気予報を参照できる。

マップの切り替え:黒色「×」印の緑ボタンをクリックして拡大、「-」印の緑ボタンをクリックして縮小、緑色の三角印をクリックして隣りの地図に切り替え


METAR-TAF: